createdAt,value
2022-11-05T00:00:37.557Z,8.08
2022-11-05T00:06:42.875Z,8.07
2022-11-05T00:12:48.461Z,8.17
2022-11-05T00:18:35.164Z,8.20
2022-11-05T00:24:41.099Z,8.36
2022-11-05T00:30:28.746Z,8.12
2022-11-05T00:36:15.331Z,8.35
2022-11-05T00:42:20.824Z,8.50
2022-11-05T00:48:25.949Z,8.46
2022-11-05T00:54:12.876Z,8.46
2022-11-05T00:59:59.546Z,8.57
2022-11-05T01:05:49.181Z,8.78
2022-11-05T01:11:37.093Z,8.60
2022-11-05T01:17:24.154Z,8.80
2022-11-05T01:23:13.684Z,8.81
2022-11-05T01:29:00.850Z,8.80
2022-11-05T01:34:48.120Z,8.89
2022-11-05T01:40:34.728Z,8.87
2022-11-05T01:46:26.647Z,8.88
2022-11-05T01:52:13.391Z,8.77
2022-11-05T01:58:01.553Z,8.86
2022-11-05T02:03:50.104Z,8.87
2022-11-05T02:09:45.254Z,8.75
2022-11-05T02:15:58.536Z,8.88
2022-11-05T02:21:48.320Z,8.85
2022-11-05T02:28:06.071Z,8.92
2022-11-05T02:34:27.359Z,8.79
2022-11-05T02:40:33.853Z,8.83
2022-11-05T02:46:33.953Z,8.85
2022-11-05T02:52:20.512Z,8.97
2022-11-05T02:58:08.225Z,8.87
2022-11-05T03:04:07.119Z,8.95
2022-11-05T03:10:12.179Z,8.98
2022-11-05T03:16:18.015Z,8.93
2022-11-05T03:22:16.355Z,8.99
2022-11-05T03:28:07.734Z,8.96
2022-11-05T03:33:55.727Z,8.94
2022-11-05T03:39:53.741Z,8.99
2022-11-05T03:45:56.100Z,8.96
2022-11-05T03:51:55.564Z,9.17
2022-11-05T03:57:48.688Z,9.11
2022-11-05T04:03:36.676Z,9.15
2022-11-05T04:09:41.747Z,9.19
2022-11-05T04:15:29.784Z,9.39
2022-11-05T04:21:35.169Z,9.38
2022-11-05T04:27:21.842Z,9.37
2022-11-05T04:33:11.346Z,9.38
2022-11-05T04:38:58.220Z,9.41
2022-11-05T04:44:44.946Z,9.49
2022-11-05T04:50:32.265Z,9.44
2022-11-05T04:56:20.559Z,9.47
2022-11-05T05:02:07.303Z,9.69
2022-11-05T05:07:54.171Z,9.71
2022-11-05T05:13:40.804Z,9.70
2022-11-05T05:19:27.801Z,9.73
2022-11-05T05:25:14.576Z,9.82
2022-11-05T05:31:01.734Z,9.88
2022-11-05T05:36:48.480Z,9.96
2022-11-05T05:42:38.859Z,10.08
2022-11-05T05:48:32.023Z,10.04
2022-11-05T05:54:20.653Z,10.20
2022-11-05T06:00:08.744Z,10.12
2022-11-05T06:06:03.540Z,10.17
2022-11-05T06:11:50.296Z,10.23
2022-11-05T06:17:39.838Z,10.31
2022-11-05T06:23:31.036Z,10.29
2022-11-05T06:29:20.488Z,10.35
2022-11-05T06:35:07.524Z,10.31
2022-11-05T06:40:55.012Z,10.32
2022-11-05T06:46:48.204Z,10.42
2022-11-05T06:52:41.041Z,10.39
2022-11-05T06:58:28.173Z,10.52
2022-11-05T07:04:14.944Z,10.65
2022-11-05T07:10:03.200Z,10.67
2022-11-05T07:15:49.822Z,10.68
2022-11-05T07:21:38.953Z,10.79
2022-11-05T07:27:28.496Z,10.60
2022-11-05T07:33:15.238Z,10.60
2022-11-05T07:39:02.121Z,10.56
2022-11-05T07:44:48.882Z,10.52
2022-11-05T07:50:38.803Z,10.66
2022-11-05T07:56:25.585Z,10.73
2022-11-05T08:02:12.918Z,10.89
2022-11-05T08:08:00.379Z,10.76
2022-11-05T08:13:47.189Z,10.87
2022-11-05T08:19:34.688Z,10.85
2022-11-05T08:25:21.821Z,10.90
2022-11-05T08:31:08.447Z,10.96
2022-11-05T08:36:55.215Z,10.91
2022-11-05T08:42:41.984Z,10.94
2022-11-05T08:48:29.289Z,10.96
2022-11-05T08:54:17.376Z,11.04
2022-11-05T09:00:04.741Z,11.14
2022-11-05T09:05:53.490Z,11.13
2022-11-05T09:12:05.728Z,11.31
2022-11-05T09:17:46.852Z,11.33
2022-11-05T09:23:33.601Z,11.42
2022-11-05T09:29:20.357Z,11.47
2022-11-05T09:35:09.545Z,11.53
2022-11-05T09:40:56.381Z,11.45
2022-11-05T09:46:59.726Z,11.57
2022-11-05T09:52:49.427Z,11.57
2022-11-05T09:58:46.621Z,11.64
2022-11-05T10:04:38.091Z,11.74
2022-11-05T10:10:42.137Z,11.72
2022-11-05T10:16:35.683Z,11.83
2022-11-05T10:22:22.542Z,11.98
2022-11-05T10:28:16.137Z,12.28
2022-11-05T10:34:06.876Z,12.41
2022-11-05T10:39:54.871Z,12.49
2022-11-05T10:46:10.389Z,12.60
2022-11-05T10:51:59.903Z,12.65
2022-11-05T10:57:52.477Z,12.71
2022-11-05T11:03:53.993Z,12.66
2022-11-05T11:09:49.054Z,12.89
2022-11-05T11:15:37.247Z,13.21
2022-11-05T11:21:34.278Z,13.37
2022-11-05T11:27:24.951Z,13.21
2022-11-05T11:33:12.639Z,13.12
2022-11-05T11:39:04.372Z,13.13
2022-11-05T11:44:51.597Z,13.30
2022-11-05T11:50:44.245Z,13.32
2022-11-05T11:56:42.682Z,13.35
2022-11-05T12:03:08.834Z,13.31
2022-11-05T12:09:21.695Z,13.39
2022-11-05T12:15:27.628Z,13.43
2022-11-05T12:21:51.931Z,13.46
2022-11-05T12:28:12.026Z,13.40
2022-11-05T12:34:26.524Z,13.45
2022-11-05T12:40:39.260Z,13.45
2022-11-05T12:46:47.930Z,13.51
2022-11-05T12:52:40.659Z,13.46
2022-11-05T12:58:39.646Z,13.41
2022-11-05T13:04:32.763Z,13.38
2022-11-05T13:11:16.564Z,13.38
2022-11-05T13:17:21.570Z,13.43
2022-11-05T13:23:42.349Z,13.73
2022-11-05T13:29:50.497Z,13.65
2022-11-05T13:36:14.256Z,13.67
2022-11-05T13:42:40.541Z,13.62
2022-11-05T13:49:21.127Z,13.60
2022-11-05T13:55:23.682Z,13.51
2022-11-05T14:01:28.821Z,13.34
2022-11-05T14:07:28.999Z,13.46
2022-11-05T14:13:33.993Z,13.46
2022-11-05T14:19:21.437Z,13.45
2022-11-05T14:25:17.633Z,13.36
2022-11-05T14:32:02.414Z,13.45
2022-11-05T14:37:41.623Z,13.44
2022-11-05T14:43:33.579Z,13.38
2022-11-05T14:49:25.805Z,13.52
2022-11-05T14:55:46.271Z,13.43
2022-11-05T15:01:52.912Z,13.56
2022-11-05T15:07:40.060Z,13.50
2022-11-05T15:13:41.311Z,13.61
2022-11-05T15:19:35.568Z,13.60
2022-11-05T15:25:56.750Z,13.59
2022-11-05T15:31:46.498Z,13.70
2022-11-05T15:37:35.869Z,13.69
2022-11-05T15:43:23.192Z,13.73
2022-11-05T15:49:10.812Z,13.63
2022-11-05T15:55:08.152Z,13.61
2022-11-05T16:00:59.355Z,13.64
2022-11-05T16:06:50.507Z,13.64
2022-11-05T16:12:37.822Z,13.67
2022-11-05T16:18:39.188Z,13.71
2022-11-05T16:24:38.242Z,13.63
2022-11-05T16:30:25.513Z,13.53
2022-11-05T16:36:12.744Z,13.55
2022-11-05T16:41:59.501Z,13.61
2022-11-05T16:47:47.378Z,13.61
2022-11-05T16:53:37.428Z,13.60
2022-11-05T16:59:24.171Z,13.53
2022-11-05T17:05:37.292Z,13.55
2022-11-05T17:11:23.916Z,13.50
2022-11-05T17:17:10.739Z,13.53
2022-11-05T17:22:58.499Z,13.54
2022-11-05T17:28:48.307Z,13.55
2022-11-05T17:34:35.077Z,13.41
2022-11-05T17:40:22.979Z,13.67
2022-11-05T17:46:12.181Z,13.66
2022-11-05T17:52:02.050Z,13.67
2022-11-05T17:57:51.797Z,13.66
2022-11-05T18:03:38.646Z,13.81
2022-11-05T18:09:27.488Z,13.83
2022-11-05T18:15:15.106Z,13.73
2022-11-05T18:21:02.081Z,13.91
2022-11-05T18:26:52.151Z,13.76
2022-11-05T18:32:39.085Z,13.80
2022-11-05T18:38:28.291Z,13.87
2022-11-05T18:44:16.757Z,14.00
2022-11-05T18:50:05.733Z,14.01
2022-11-05T18:55:54.546Z,14.03
2022-11-05T19:01:41.954Z,14.04
2022-11-05T19:07:35.082Z,13.99
2022-11-05T19:13:21.779Z,13.99
2022-11-05T19:19:09.809Z,13.97
2022-11-05T19:24:56.819Z,14.01
2022-11-05T19:30:45.405Z,14.16
2022-11-05T19:36:33.162Z,14.07
2022-11-05T19:42:19.870Z,14.15
2022-11-05T19:48:11.471Z,14.17
2022-11-05T19:54:03.333Z,14.25
2022-11-05T19:59:50.657Z,14.29
2022-11-05T20:05:38.392Z,14.26
2022-11-05T20:11:25.536Z,14.23
2022-11-05T20:17:14.568Z,14.27
2022-11-05T20:23:01.343Z,14.26
2022-11-05T20:28:48.268Z,14.36
2022-11-05T20:34:35.086Z,14.43
2022-11-05T20:40:26.247Z,14.54
2022-11-05T20:46:31.612Z,14.49
2022-11-05T20:52:20.441Z,14.49
2022-11-05T20:58:07.740Z,14.47
2022-11-05T21:03:57.183Z,14.57
2022-11-05T21:09:46.116Z,14.61
2022-11-05T21:15:38.559Z,14.70
2022-11-05T21:21:27.244Z,14.78
2022-11-05T21:28:15.488Z,14.69
2022-11-05T21:34:34.778Z,14.68
2022-11-05T21:54:41.645Z,14.77
2022-11-05T22:00:33.032Z,14.80
2022-11-05T22:12:38.529Z,14.89
2022-11-05T22:18:33.780Z,14.85
2022-11-05T22:24:33.353Z,15.01
2022-11-05T22:30:32.493Z,14.95
2022-11-05T22:36:59.443Z,15.07
2022-11-05T22:42:48.103Z,15.02
2022-11-05T22:48:39.832Z,14.97
2022-11-05T22:54:28.068Z,15.11
2022-11-05T23:00:24.439Z,15.12
2022-11-05T23:06:38.983Z,15.06
2022-11-05T23:12:54.004Z,15.07
2022-11-05T23:19:19.809Z,15.00
2022-11-05T23:25:12.886Z,15.09
2022-11-05T23:31:18.894Z,15.08
2022-11-05T23:37:25.309Z,14.94
2022-11-05T23:43:31.004Z,14.95
2022-11-05T23:49:18.566Z,15.00
2022-11-05T23:55:05.627Z,15.02
